createdAt,value
2019-02-19T04:54:01.645Z,6.20
2019-02-19T04:56:31.422Z,6.00
2019-02-19T04:59:05.619Z,6.10
2019-02-19T05:01:36.489Z,6.00
2019-02-19T05:04:06.174Z,6.00
2019-02-19T05:06:36.233Z,6.10
2019-02-19T05:09:06.563Z,6.10
2019-02-19T05:11:36.462Z,6.30
2019-02-19T05:14:06.802Z,6.30
2019-02-19T05:16:40.748Z,6.00
2019-02-19T05:19:08.753Z,6.00
2019-02-19T05:21:38.971Z,5.60
2019-02-19T05:24:09.998Z,5.20
2019-02-19T05:26:39.848Z,5.40
2019-02-19T05:29:10.502Z,5.70
2019-02-19T05:31:40.742Z,5.70
2019-02-19T05:34:11.786Z,5.50
2019-02-19T05:36:42.208Z,5.50
2019-02-19T05:39:12.786Z,5.50
2019-02-19T05:41:43.077Z,5.40
2019-02-19T05:44:13.662Z,5.40
2019-02-19T05:46:49.729Z,5.40
2019-02-19T05:49:14.657Z,5.20
2019-02-19T05:51:44.367Z,5.40
2019-02-19T05:54:14.351Z,5.10
2019-02-19T05:56:44.469Z,4.20
2019-02-19T05:59:14.818Z,4.00
2019-02-19T06:01:44.988Z,4.10
2019-02-19T06:04:15.632Z,4.30
2019-02-19T06:06:45.828Z,4.70
2019-02-19T06:09:15.640Z,4.80
2019-02-19T06:11:45.723Z,4.50
2019-02-19T06:14:15.701Z,4.50
2019-02-19T06:16:45.832Z,4.20
2019-02-19T06:19:15.855Z,3.90
2019-02-19T06:21:45.833Z,3.80
2019-02-19T06:24:15.844Z,3.50
2019-02-19T06:26:47.177Z,3.50
2019-02-19T06:29:17.650Z,3.50
2019-02-19T06:31:47.747Z,3.80
2019-02-19T06:34:18.284Z,3.10
2019-02-19T06:36:47.688Z,3.00
2019-02-19T06:39:17.758Z,2.50
2019-02-19T06:41:47.490Z,2.70
2019-02-19T06:44:17.624Z,2.60
2019-02-19T06:46:48.140Z,2.60
2019-02-19T06:49:17.991Z,2.10
2019-02-19T06:51:47.976Z,2.00
2019-02-19T06:54:18.285Z,2.80
2019-02-19T06:56:48.061Z,3.00
2019-02-19T06:59:17.998Z,3.10
2019-02-19T07:02:06.004Z,3.00
2019-02-19T07:04:44.182Z,3.00
2019-02-19T07:07:15.194Z,3.10
2019-02-19T07:09:45.112Z,2.90
2019-02-19T07:12:15.277Z,2.50
2019-02-19T07:14:45.624Z,2.20
2019-02-19T07:17:16.199Z,2.40
2019-02-19T07:19:47.404Z,2.10
2019-02-19T07:22:20.168Z,2.30
2019-02-19T07:24:55.552Z,2.40
2019-02-19T07:27:25.829Z,2.50
2019-02-19T07:29:55.977Z,2.30
2019-02-19T07:32:29.385Z,2.30
2019-02-19T07:34:59.780Z,2.30
2019-02-19T07:37:30.187Z,2.60
2019-02-19T07:40:01.368Z,2.90
2019-02-19T07:42:31.800Z,3.00
2019-02-19T07:45:01.532Z,3.10
2019-02-19T07:47:31.832Z,2.90
2019-02-19T07:50:01.946Z,3.00
2019-02-19T07:52:31.827Z,3.00
2019-02-19T07:55:02.117Z,3.10
2019-02-19T07:57:32.856Z,3.30
2019-02-19T08:00:02.977Z,3.20
2019-02-19T08:02:32.903Z,3.50
2019-02-19T08:05:03.762Z,3.60
2019-02-19T08:07:33.649Z,3.70
2019-02-19T08:10:03.390Z,4.00
2019-02-19T08:12:33.543Z,4.10
2019-02-19T08:15:05.432Z,4.10
2019-02-19T08:17:36.056Z,4.30
2019-02-19T08:20:14.925Z,4.10
2019-02-19T08:22:37.878Z,4.30
2019-02-19T08:25:11.257Z,4.00
2019-02-19T08:27:41.154Z,4.40
2019-02-19T08:30:12.318Z,4.60
2019-02-19T08:32:42.481Z,4.50
2019-02-19T08:35:12.860Z,4.30
2019-02-19T08:37:43.179Z,4.70
2019-02-19T08:40:13.445Z,4.70
2019-02-19T08:42:42.925Z,5.00
2019-02-19T08:45:13.149Z,5.00
2019-02-19T08:47:43.130Z,4.80
2019-02-19T08:50:13.715Z,5.00
2019-02-19T08:52:43.222Z,5.10
2019-02-19T08:55:13.666Z,5.30
2019-02-19T08:57:43.758Z,5.40
2019-02-19T09:00:13.953Z,5.30
2019-02-19T09:02:43.553Z,5.50
2019-02-19T09:05:13.609Z,5.40
2019-02-19T09:07:43.225Z,5.70
2019-02-19T09:10:13.449Z,5.70
2019-02-19T09:12:43.540Z,5.60
2019-02-19T09:15:13.577Z,6.00
2019-02-19T09:18:04.442Z,6.10
2019-02-19T09:20:34.699Z,6.40
2019-02-19T09:23:05.113Z,6.60
2019-02-19T09:25:34.562Z,6.60
2019-02-19T09:28:04.557Z,6.40
2019-02-19T09:30:34.270Z,6.30
2019-02-19T09:33:04.551Z,6.80
2019-02-19T09:35:34.493Z,6.90
2019-02-19T09:38:04.835Z,6.90
2019-02-19T09:40:34.669Z,7.10
2019-02-19T09:43:04.602Z,7.10
2019-02-19T09:45:35.211Z,7.20
2019-02-19T09:48:05.180Z,7.20
2019-02-19T09:50:35.067Z,7.20
2019-02-19T09:53:04.612Z,7.40
2019-02-19T09:55:34.937Z,7.30
2019-02-19T09:58:11.223Z,7.40
2019-02-19T10:00:41.899Z,7.20
2019-02-19T10:03:11.804Z,6.90
2019-02-19T10:05:41.824Z,7.00
2019-02-19T10:08:11.704Z,7.20
2019-02-19T10:10:41.970Z,7.10
2019-02-19T10:13:12.709Z,7.40
2019-02-19T10:15:42.844Z,7.50
2019-02-19T10:18:12.805Z,7.60
2019-02-19T10:20:42.944Z,7.20
2019-02-19T10:23:13.774Z,7.10
2019-02-19T10:25:44.671Z,7.20
2019-02-19T10:28:15.079Z,7.50
2019-02-19T10:30:45.875Z,7.50
2019-02-19T10:33:15.732Z,7.40
2019-02-19T10:35:45.356Z,7.00
2019-02-19T10:38:15.353Z,6.80
2019-02-19T10:40:45.760Z,6.80
2019-02-19T10:43:15.410Z,6.70
2019-02-19T10:45:45.481Z,6.90
2019-02-19T10:48:18.957Z,6.80
2019-02-19T10:50:47.332Z,6.70
2019-02-19T10:53:17.836Z,7.00
2019-02-19T10:55:47.720Z,7.00
2019-02-19T10:58:23.045Z,7.10
2019-02-19T11:00:49.184Z,7.10
2019-02-19T11:03:20.520Z,7.10
2019-02-19T11:05:50.242Z,6.80
2019-02-19T11:08:20.427Z,6.60
2019-02-19T11:10:50.875Z,6.70
2019-02-19T11:13:20.575Z,7.20
2019-02-19T11:15:51.042Z,7.00
2019-02-19T11:18:41.412Z,6.80
2019-02-19T11:21:19.249Z,6.80
2019-02-19T11:23:43.585Z,6.90
2019-02-19T11:26:14.307Z,6.80
2019-02-19T11:28:44.224Z,6.80
2019-02-19T11:31:14.523Z,7.00
2019-02-19T11:33:44.349Z,7.10
2019-02-19T11:36:14.872Z,7.20
2019-02-19T11:38:44.449Z,7.00
2019-02-19T11:41:14.620Z,7.20
2019-02-19T11:43:44.272Z,7.20
2019-02-19T11:46:15.034Z,7.20
2019-02-19T11:48:45.197Z,7.10
2019-02-19T11:51:15.356Z,7.20
2019-02-19T11:53:46.003Z,7.30
2019-02-19T11:56:16.848Z,7.00
2019-02-19T11:58:46.868Z,7.20
2019-02-19T12:01:16.340Z,7.00
2019-02-19T12:03:46.281Z,7.10
2019-02-19T12:06:16.582Z,7.30
2019-02-19T12:08:46.718Z,7.40
2019-02-19T12:11:16.507Z,7.50
2019-02-19T12:13:46.600Z,7.50
2019-02-19T12:16:16.295Z,7.50
2019-02-19T12:18:46.581Z,7.60
2019-02-19T12:21:17.102Z,7.60
2019-02-19T12:23:46.687Z,7.80
2019-02-19T12:26:16.971Z,7.60
2019-02-19T12:28:46.836Z,7.60
2019-02-19T12:31:16.503Z,7.60
2019-02-19T12:33:46.572Z,7.80
2019-02-19T12:36:16.858Z,7.60
2019-02-19T12:38:47.422Z,7.80
2019-02-19T12:41:17.406Z,7.90
2019-02-19T12:43:47.745Z,8.00
2019-02-19T12:46:18.376Z,8.00
2019-02-19T12:48:54.337Z,7.90
2019-02-19T12:51:26.278Z,7.90
2019-02-19T12:53:52.967Z,8.20
2019-02-19T12:56:25.426Z,8.10
2019-02-19T12:58:55.608Z,8.20
2019-02-19T13:01:25.953Z,8.10
2019-02-19T13:03:56.670Z,8.30
2019-02-19T13:06:26.362Z,8.30
2019-02-19T13:08:56.522Z,8.10
2019-02-19T13:11:26.766Z,8.30
2019-02-19T13:13:57.422Z,8.30
2019-02-19T13:16:27.878Z,8.40
2019-02-19T13:19:03.431Z,8.60
2019-02-19T13:21:29.815Z,8.30
2019-02-19T13:24:01.370Z,8.20
2019-02-19T13:26:32.179Z,8.30
2019-02-19T13:29:02.626Z,8.30
2019-02-19T13:31:32.699Z,8.30
2019-02-19T13:34:02.577Z,8.30
2019-02-19T13:36:32.545Z,8.30
2019-02-19T13:39:04.703Z,8.40
2019-02-19T13:41:37.059Z,8.50
2019-02-19T13:44:07.723Z,8.60
2019-02-19T13:46:38.067Z,8.40
2019-02-19T13:49:12.305Z,8.60
2019-02-19T13:51:39.549Z,8.60
2019-02-19T13:54:14.442Z,8.70
2019-02-19T13:56:44.300Z,8.70
2019-02-19T13:59:16.351Z,8.50
2019-02-19T14:01:46.575Z,8.50
2019-02-19T14:04:16.870Z,8.70
2019-02-19T14:06:47.345Z,8.60
2019-02-19T14:09:17.600Z,8.70
2019-02-19T14:11:47.940Z,8.50
2019-02-19T14:14:38.661Z,8.50
2019-02-19T14:17:13.143Z,8.70
2019-02-19T14:19:53.824Z,8.70
2019-02-19T14:22:58.477Z,8.80
2019-02-19T14:25:37.679Z,8.70
2019-02-19T14:28:25.825Z,8.70
2019-02-19T14:31:16.421Z,8.60
2019-02-19T14:34:12.252Z,8.70
2019-02-19T14:37:04.588Z,8.70
2019-02-19T14:39:53.957Z,8.60
2019-02-19T14:42:49.778Z,8.70
2019-02-19T14:45:48.467Z,8.60
2019-02-19T14:48:38.064Z,8.90
2019-02-19T14:51:29.094Z,8.80
2019-02-19T14:54:21.282Z,8.90
2019-02-19T14:57:08.210Z,9.00
2019-02-19T15:00:07.298Z,9.00
2019-02-19T15:02:53.287Z,8.90
2019-02-19T15:05:41.337Z,9.00
2019-02-19T15:08:29.910Z,9.20
2019-02-19T15:11:19.875Z,9.00
2019-02-19T15:14:08.108Z,9.10
2019-02-19T15:17:04.757Z,9.30
2019-02-19T15:19:45.530Z,9.10
2019-02-19T15:22:33.680Z,9.00
2019-02-19T15:25:24.669Z,9.30
2019-02-19T15:28:07.801Z,9.10
2019-02-19T15:31:07.404Z,9.10
2019-02-19T15:34:02.498Z,9.10
2019-02-19T15:36:58.333Z,9.00
2019-02-19T15:39:46.469Z,8.90
2019-02-19T15:42:33.792Z,8.90
2019-02-19T15:45:23.882Z,9.00
2019-02-19T15:48:20.521Z,9.20
2019-02-19T15:51:18.902Z,9.10
